Time;durP1;ratioP1;P1;durP2;ratioP2;P2;SDS_P1;SDS_P2;PMS_P1;PMS_P2;Temp;Humidity;BMP_temperature;BMP_pressure;BME280_temperature;BME280_humidity;BME280_pressure;Samples;Min_cycle;Max_cycle;Signal;HPM_P1;HPM_P2
2023/12/29 00:00:30;;;;;;;17.42;12.32;;;4.90;99.90;;;;;;5067035;29;20072;-72
2023/12/29 00:03:01;;;;;;;17.80;13.52;;;4.80;99.90;;;;;;5066577;29;20049;-72
2023/12/29 00:05:32;;;;;;;38.00;25.33;;;5.80;99.90;;;;;;5066676;29;20029;-72
2023/12/29 00:08:03;;;;;;;29.33;21.73;;;5.30;99.90;;;;;;5066382;29;20492;-73
2023/12/29 00:10:34;;;;;;;21.08;13.90;;;4.80;99.90;;;;;;5066257;29;20046;-73
2023/12/29 00:13:05;;;;;;;17.17;12.45;;;5.30;99.90;;;;;;5066413;29;20044;-72
2023/12/29 00:15:36;;;;;;;18.00;12.82;;;5.10;99.90;;;;;;5066171;29;20844;-72
2023/12/29 00:18:07;;;;;;;21.15;13.63;;;4.90;99.90;;;;;;5066556;29;20117;-72
2023/12/29 00:20:38;;;;;;;21.55;13.05;;;4.70;99.90;;;;;;5066448;29;20017;-72
2023/12/29 00:23:09;;;;;;;19.02;13.40;;;4.70;99.90;;;;;;5066183;29;20033;-73
2023/12/29 00:25:40;;;;;;;23.30;17.90;;;4.70;99.90;;;;;;5065957;29;20084;-72
2023/12/29 00:28:11;;;;;;;16.48;13.10;;;4.50;99.90;;;;;;5065290;29;20481;-72
2023/12/29 00:30:41;;;;;;;15.00;13.27;;;4.40;99.90;;;;;;5048182;29;20055;-72
2023/12/29 00:33:12;;;;;;;14.50;12.63;;;4.40;99.90;;;;;;5065007;29;20096;-72
2023/12/29 00:35:43;;;;;;;17.65;13.00;;;4.30;99.90;;;;;;5065374;29;20017;-72
2023/12/29 00:38:14;;;;;;;14.93;12.82;;;4.80;99.90;;;;;;5065386;29;20063;-72
2023/12/29 00:40:45;;;;;;;13.95;12.05;;;4.70;99.90;;;;;;5064741;29;20048;-72
2023/12/29 00:43:17;;;;;;;17.00;12.43;;;4.70;99.90;;;;;;5065186;29;20065;-73
2023/12/29 00:45:47;;;;;;;14.00;11.20;;;4.60;99.90;;;;;;5065850;29;20051;-72
2023/12/29 00:48:18;;;;;;;16.83;12.23;;;4.60;99.90;;;;;;5065701;29;20020;-72
2023/12/29 00:50:49;;;;;;;16.50;13.13;;;4.50;99.90;;;;;;5065851;29;20107;-72
2023/12/29 00:53:20;;;;;;;19.20;14.48;;;4.30;99.90;;;;;;5065793;29;20037;-72
2023/12/29 00:55:51;;;;;;;15.52;12.15;;;4.30;99.90;;;;;;5065404;29;20481;-72
2023/12/29 00:58:22;;;;;;;14.57;11.65;;;4.50;99.90;;;;;;5065315;29;20044;-72
2023/12/29 01:00:53;;;;;;;14.98;11.02;;;4.60;99.90;;;;;;5065474;29;20025;-72
2023/12/29 01:03:23;;;;;;;15.70;12.77;;;4.50;99.90;;;;;;5065379;29;20057;-72
2023/12/29 01:05:54;;;;;;;15.02;13.10;;;4.10;99.90;;;;;;5065689;29;20483;-72
2023/12/29 01:08:25;;;;;;;16.88;12.40;;;4.20;99.90;;;;;;5065453;29;20485;-72
2023/12/29 01:10:56;;;;;;;17.50;12.88;;;4.30;99.90;;;;;;5065511;29;20144;-73
2023/12/29 01:13:27;;;;;;;18.48;12.73;;;4.40;99.90;;;;;;5064855;29;20087;-72
2023/12/29 01:15:58;;;;;;;14.55;12.65;;;4.30;99.90;;;;;;5065179;29;20075;-72
2023/12/29 01:18:29;;;;;;;25.48;21.13;;;4.40;99.90;;;;;;5065173;29;20024;-72
2023/12/29 01:21:00;;;;;;;31.77;23.67;;;4.40;99.90;;;;;;5063967;29;20052;-72
2023/12/29 01:23:30;;;;;;;31.52;24.60;;;4.50;99.90;;;;;;5064419;29;20452;-72
2023/12/29 01:26:02;;;;;;;28.42;19.98;;;4.50;99.90;;;;;;5064044;29;20720;-72
2023/12/29 01:28:33;;;;;;;18.83;15.18;;;4.40;99.90;;;;;;5064167;29;20040;-72
2023/12/29 01:31:04;;;;;;;18.40;14.20;;;4.50;99.90;;;;;;5063732;29;20055;-72
2023/12/29 01:33:35;;;;;;;24.02;15.85;;;4.50;99.90;;;;;;5063791;29;20035;-73
2023/12/29 01:36:06;;;;;;;23.00;19.25;;;4.60;99.90;;;;;;5064447;29;20553;-72
2023/12/29 01:38:39;;;;;;;25.60;19.65;;;4.50;99.90;;;;;;5064964;29;20107;-72
2023/12/29 01:41:10;;;;;;;25.60;20.63;;;4.50;99.90;;;;;;5065080;29;20056;-72
2023/12/29 01:44:01;;;;;;;27.98;19.20;;;4.40;99.90;;;;;;5540656;23;20079;-72
2023/12/29 01:46:35;;;;;;;23.30;17.88;;;4.30;99.90;;;;;;5083929;29;20043;-71
2023/12/29 01:49:06;;;;;;;22.75;18.83;;;4.20;99.90;;;;;;5089838;29;20068;-71
2023/12/29 01:51:37;;;;;;;20.23;17.33;;;4.10;99.90;;;;;;5093105;29;20134;-71
2023/12/29 01:54:08;;;;;;;19.23;16.50;;;4.10;99.90;;;;;;5084874;29;20036;-72
2023/12/29 01:56:40;;;;;;;23.95;17.70;;;4.20;99.90;;;;;;5084490;29;20059;-72
2023/12/29 01:59:11;;;;;;;24.27;19.17;;;4.30;99.90;;;;;;5084357;29;20032;-72
2023/12/29 02:01:43;;;;;;;21.05;17.25;;;4.20;99.90;;;;;;5084348;29;20808;-71
2023/12/29 02:04:15;;;;;;;21.70;17.35;;;4.20;99.90;;;;;;5084389;29;20556;-71
2023/12/29 02:06:46;;;;;;;20.75;16.83;;;4.30;99.90;;;;;;5083922;29;20110;-71
2023/12/29 02:09:17;;;;;;;21.52;17.17;;;4.20;99.90;;;;;;5084524;29;20073;-72
2023/12/29 02:11:48;;;;;;;20.92;17.60;;;4.30;99.90;;;;;;5084007;29;20370;-72
2023/12/29 02:14:21;;;;;;;21.75;16.33;;;4.20;99.90;;;;;;5084021;29;20453;-72
2023/12/29 02:17:16;;;;;;;18.35;13.60;;;4.40;99.90;;;;;;5083819;29;20408;-72
2023/12/29 02:19:49;;;;;;;17.08;14.48;;;4.40;99.90;;;;;;5083092;29;20031;-72
2023/12/29 02:22:20;;;;;;;14.80;11.95;;;4.30;99.90;;;;;;5083210;29;20028;-72
2023/12/29 02:24:51;;;;;;;16.77;14.02;;;4.30;99.90;;;;;;5083319;29;20036;-72
2023/12/29 02:27:49;;;;;;;17.85;14.13;;;4.20;99.90;;;;;;5083248;29;20037;-71
2023/12/29 02:30:26;;;;;;;19.63;13.30;;;4.10;99.90;;;;;;5083479;29;20032;-72
2023/12/29 02:33:05;;;;;;;16.13;12.38;;;4.20;99.90;;;;;;5084940;29;20051;-71
2023/12/29 02:35:41;;;;;;;15.90;12.88;;;4.00;99.90;;;;;;5087564;29;20567;-71
2023/12/29 02:38:13;;;;;;;17.45;13.23;;;4.00;99.90;;;;;;5087484;29;20063;-72
2023/12/29 02:40:43;;;;;;;15.70;12.60;;;4.10;99.90;;;;;;5087726;29;20020;-71
2023/12/29 02:43:14;;;;;;;14.80;12.52;;;4.30;99.90;;;;;;5087658;29;20082;-71
2023/12/29 02:45:45;;;;;;;15.05;12.10;;;4.30;99.90;;;;;;5087619;29;20055;-71
2023/12/29 02:48:16;;;;;;;16.73;12.50;;;4.30;99.90;;;;;;5087589;29;20038;-72
2023/12/29 02:50:47;;;;;;;17.48;12.90;;;4.20;99.90;;;;;;5087458;29;20036;-72
2023/12/29 02:53:18;;;;;;;15.23;13.18;;;4.20;99.90;;;;;;5087371;29;20032;-71
2023/12/29 02:55:49;;;;;;;17.77;14.35;;;4.20;99.90;;;;;;5087377;29;20028;-72
2023/12/29 02:58:19;;;;;;;20.65;13.52;;;4.30;99.90;;;;;;5087475;29;20050;-72
2023/12/29 03:00:50;;;;;;;17.45;14.35;;;4.60;99.90;;;;;;5087218;29;20031;-72
2023/12/29 03:03:21;;;;;;;19.98;14.43;;;4.40;99.90;;;;;;5087444;29;20088;-71
2023/12/29 03:05:52;;;;;;;14.65;12.35;;;4.70;99.90;;;;;;5087464;29;20032;-71
2023/12/29 03:08:23;;;;;;;15.25;12.40;;;4.60;99.90;;;;;;5087192;29;20028;-71
2023/12/29 03:10:54;;;;;;;15.40;13.07;;;4.50;99.90;;;;;;5086594;29;20036;-72
2023/12/29 03:13:25;;;;;;;18.65;14.40;;;4.50;99.90;;;;;;5086723;29;20040;-71
2023/12/29 03:15:55;;;;;;;24.35;18.13;;;4.70;99.90;;;;;;5085692;29;20032;-72
2023/12/29 03:18:26;;;;;;;20.95;17.17;;;5.00;99.90;;;;;;5085747;29;20107;-71
2023/12/29 03:20:57;;;;;;;23.95;19.83;;;5.00;99.90;;;;;;5085692;29;20818;-72
2023/12/29 03:23:28;;;;;;;24.33;20.88;;;5.10;99.90;;;;;;5085694;29;20567;-72
2023/12/29 03:25:59;;;;;;;26.00;20.50;;;5.50;99.90;;;;;;5085517;29;20057;-72
2023/12/29 03:28:30;;;;;;;26.50;20.20;;;5.60;99.90;;;;;;5085246;29;20043;-71
2023/12/29 03:31:00;;;;;;;35.15;24.52;;;5.60;99.90;;;;;;5086055;29;20044;-71
2023/12/29 03:33:31;;;;;;;29.23;22.42;;;5.90;99.90;;;;;;5086427;29;20086;-71
2023/12/29 03:36:02;;;;;;;33.17;23.67;;;5.80;99.90;;;;;;5086209;29;20761;-71
2023/12/29 03:38:33;;;;;;;26.88;21.27;;;6.00;99.90;;;;;;5086219;29;20426;-71
2023/12/29 03:41:04;;;;;;;27.10;22.27;;;5.80;99.90;;;;;;5078283;29;20067;-71
2023/12/29 03:43:35;;;;;;;29.08;22.35;;;5.80;99.90;;;;;;5065454;29;20043;-72
2023/12/29 03:46:18;;;;;;;27.27;23.75;;;5.90;99.90;;;;;;5066356;29;20095;-72
2023/12/29 03:48:49;;;;;;;33.45;24.73;;;6.00;99.90;;;;;;5066646;29;20080;-71
2023/12/29 03:51:20;;;;;;;31.10;24.38;;;6.10;99.90;;;;;;5066395;29;20382;-72
2023/12/29 03:53:51;;;;;;;27.15;24.17;;;6.00;99.90;;;;;;5066368;29;20035;-72
2023/12/29 03:56:23;;;;;;;27.63;23.27;;;5.90;99.90;;;;;;5066372;29;20040;-72
2023/12/29 03:58:54;;;;;;;40.92;33.15;;;5.90;99.90;;;;;;5066410;29;20088;-71
2023/12/29 04:01:25;;;;;;;47.60;35.30;;;6.30;99.90;;;;;;5066401;29;20033;-72
2023/12/29 04:03:56;;;;;;;34.95;30.88;;;6.40;99.90;;;;;;5066590;29;20630;-71
2023/12/29 04:06:27;;;;;;;44.17;37.13;;;6.30;99.90;;;;;;5066165;29;20076;-72
2023/12/29 04:08:58;;;;;;;56.42;43.42;;;6.40;99.90;;;;;;5065727;29;20028;-71
2023/12/29 04:11:29;;;;;;;58.67;45.53;;;6.80;99.90;;;;;;5065152;29;20498;-72
2023/12/29 04:14:00;;;;;;;60.13;45.20;;;7.10;99.90;;;;;;5064842;29;20100;-72
2023/12/29 04:16:31;;;;;;;58.08;46.80;;;6.00;99.90;;;;;;5065188;29;20043;-71
2023/12/29 04:19:02;;;;;;;61.97;46.72;;;6.60;99.90;;;;;;5064962;29;20601;-72
2023/12/29 04:21:33;;;;;;;62.25;46.65;;;7.80;99.90;;;;;;5064994;29;20041;-71
2023/12/29 04:24:04;;;;;;;65.65;47.28;;;7.60;99.90;;;;;;5065062;29;20033;-72
2023/12/29 04:26:38;;;;;;;56.55;46.78;;;5.50;99.90;;;;;;5065512;29;20092;-72
2023/12/29 04:29:09;;;;;;;59.05;47.58;;;7.30;99.90;;;;;;5065524;29;20107;-72
2023/12/29 04:31:41;;;;;;;54.38;42.38;;;7.30;99.90;;;;;;5065417;29;20115;-72
2023/12/29 04:34:12;;;;;;;51.55;40.42;;;7.40;99.90;;;;;;5065861;29;20081;-71
2023/12/29 04:36:43;;;;;;;52.55;42.35;;;7.50;99.90;;;;;;5065620;29;20370;-72
2023/12/29 04:39:13;;;;;;;49.88;38.92;;;7.30;99.90;;;;;;5065237;29;20495;-72
2023/12/29 04:41:44;;;;;;;51.55;40.95;;;7.40;99.90;;;;;;5065461;29;20096;-72
2023/12/29 04:44:15;;;;;;;50.35;39.40;;;7.40;99.90;;;;;;5065054;29;20083;-72
2023/12/29 04:46:46;;;;;;;50.63;40.22;;;7.50;99.90;;;;;;5065208;29;20060;-72
2023/12/29 04:49:17;;;;;;;52.95;40.88;;;7.40;99.90;;;;;;5065233;29;20097;-72
2023/12/29 04:51:48;;;;;;;52.60;39.92;;;7.40;99.90;;;;;;5065068;29;20572;-71
2023/12/29 04:54:19;;;;;;;48.05;38.58;;;7.50;99.90;;;;;;5064916;29;20028;-71
2023/12/29 04:56:50;;;;;;;48.15;36.38;;;7.50;99.90;;;;;;5064906;29;20031;-72
2023/12/29 04:59:21;;;;;;;50.17;40.47;;;7.70;99.90;;;;;;5064722;29;20116;-72
2023/12/29 05:01:52;;;;;;;51.08;40.35;;;7.70;99.90;;;;;;5062969;29;20064;-72
2023/12/29 05:04:23;;;;;;;48.78;38.25;;;7.60;99.90;;;;;;5064448;29;20036;-71
2023/12/29 05:06:53;;;;;;;50.85;40.08;;;7.70;99.90;;;;;;5064595;29;20034;-72
2023/12/29 05:09:24;;;;;;;44.95;35.80;;;7.70;99.90;;;;;;5063533;29;20032;-71
2023/12/29 05:11:55;;;;;;;47.90;36.72;;;7.80;99.90;;;;;;5064061;29;20040;-72
2023/12/29 05:14:26;;;;;;;44.10;34.67;;;7.80;99.90;;;;;;5063574;29;20040;-72
2023/12/29 05:16:57;;;;;;;38.72;32.85;;;7.80;99.90;;;;;;5063879;29;20084;-71
2023/12/29 05:19:28;;;;;;;40.97;33.40;;;7.80;99.90;;;;;;5063644;29;20036;-72
2023/12/29 05:21:59;;;;;;;42.30;33.22;;;7.90;99.90;;;;;;5064058;29;20386;-71
2023/12/29 05:24:29;;;;;;;46.67;34.67;;;8.00;99.90;;;;;;5064641;29;20071;-71
2023/12/29 05:27:00;;;;;;;44.90;35.25;;;8.00;99.90;;;;;;5064840;29;20544;-72
2023/12/29 05:29:31;;;;;;;50.17;34.72;;;7.90;99.90;;;;;;5065068;29;20578;-72
2023/12/29 05:32:02;;;;;;;45.30;35.08;;;8.00;99.90;;;;;;5064622;29;20051;-73
2023/12/29 05:34:33;;;;;;;43.47;34.25;;;8.00;99.90;;;;;;5064296;29;20035;-71
2023/12/29 05:37:04;;;;;;;44.85;34.63;;;8.00;99.90;;;;;;5064993;29;20033;-72
2023/12/29 05:39:35;;;;;;;43.58;35.13;;;8.10;99.90;;;;;;5057491;29;20040;-71
2023/12/29 05:42:06;;;;;;;52.88;40.67;;;7.90;99.90;;;;;;5065306;29;20029;-71
2023/12/29 05:44:37;;;;;;;35.55;28.60;;;8.00;99.90;;;;;;5478984;23;20071;-72
2023/12/29 05:47:09;;;;;;;33.88;28.02;;;7.60;99.90;;;;;;5083912;29;20032;-71
2023/12/29 05:49:40;;;;;;;36.50;27.65;;;7.70;99.90;;;;;;5090263;29;20043;-72
2023/12/29 05:52:11;;;;;;;36.53;27.92;;;7.40;99.90;;;;;;5087390;29;20083;-72
2023/12/29 05:54:42;;;;;;;37.60;28.95;;;7.40;99.90;;;;;;5086226;29;20473;-71
2023/12/29 05:57:12;;;;;;;37.35;28.50;;;7.10;99.90;;;;;;5091271;29;20419;-72
2023/12/29 05:59:43;;;;;;;35.72;24.08;;;7.20;99.90;;;;;;5072543;29;20531;-72
2023/12/29 06:02:14;;;;;;;37.17;26.38;;;6.90;99.90;;;;;;5085448;29;20028;-72
2023/12/29 06:04:45;;;;;;;40.10;29.75;;;6.80;99.90;;;;;;5090258;29;20043;-72
2023/12/29 06:07:16;;;;;;;35.30;27.48;;;6.70;99.90;;;;;;5096723;29;20035;-72
2023/12/29 06:09:47;;;;;;;33.75;26.70;;;6.70;99.90;;;;;;5096314;29;20068;-72
2023/12/29 06:12:19;;;;;;;34.88;25.80;;;6.50;99.90;;;;;;5091348;29;20712;-73
2023/12/29 06:14:52;;;;;;;32.53;26.85;;;6.60;99.90;;;;;;5093997;29;20484;-73
2023/12/29 06:17:23;;;;;;;32.35;26.50;;;6.60;99.90;;;;;;5093596;29;20127;-73
2023/12/29 06:19:55;;;;;;;34.63;27.23;;;6.70;99.90;;;;;;5094982;29;20645;-72
2023/12/29 06:22:27;;;;;;;32.13;26.75;;;6.80;99.90;;;;;;5092172;29;20032;-73
2023/12/29 06:25:00;;;;;;;36.08;27.15;;;6.70;99.90;;;;;;5090617;29;20027;-73
2023/12/29 06:27:32;;;;;;;32.65;25.92;;;6.90;99.90;;;;;;5090936;29;20389;-73
2023/12/29 06:30:05;;;;;;;32.00;26.50;;;6.80;99.90;;;;;;5093540;29;20060;-73
2023/12/29 06:32:37;;;;;;;29.23;24.73;;;7.10;99.90;;;;;;5089476;29;20068;-73
2023/12/29 06:35:11;;;;;;;36.65;30.67;;;7.30;99.90;;;;;;5089294;29;20412;-73
2023/12/29 06:37:43;;;;;;;41.13;34.72;;;7.40;99.90;;;;;;5091134;29;20039;-72
2023/12/29 06:40:18;;;;;;;33.97;29.23;;;7.70;99.90;;;;;;5089613;29;20111;-72
2023/12/29 06:42:49;;;;;;;33.38;28.30;;;7.50;99.90;;;;;;5090166;29;20082;-73
2023/12/29 06:45:19;;;;;;;31.95;27.13;;;7.50;99.90;;;;;;5087948;29;20523;-72
2023/12/29 06:47:50;;;;;;;32.28;27.55;;;7.70;99.90;;;;;;5087989;29;20068;-73
2023/12/29 06:50:21;;;;;;;27.55;24.63;;;7.80;99.90;;;;;;5092595;29;20039;-73
2023/12/29 06:52:52;;;;;;;28.48;24.70;;;8.00;99.90;;;;;;5093118;29;20134;-73
2023/12/29 06:55:25;;;;;;;27.63;24.05;;;8.00;99.90;;;;;;5090643;29;20036;-73
2023/12/29 06:57:59;;;;;;;28.42;24.90;;;8.30;99.90;;;;;;5092524;29;20027;-73
2023/12/29 07:00:29;;;;;;;27.13;24.23;;;8.30;99.90;;;;;;5094149;29;20032;-73
2023/12/29 07:03:01;;;;;;;29.27;26.15;;;8.50;99.90;;;;;;5092566;29;20379;-73
2023/12/29 07:05:32;;;;;;;27.92;24.92;;;8.50;99.90;;;;;;5096625;29;20067;-73
2023/12/29 07:08:03;;;;;;;26.90;24.00;;;8.60;99.90;;;;;;5092905;29;20512;-73
2023/12/29 07:10:34;;;;;;;28.00;25.00;;;8.80;99.90;;;;;;5088303;29;20122;-73
2023/12/29 07:13:05;;;;;;;31.00;27.52;;;8.90;99.90;;;;;;5086589;29;20540;-73
2023/12/29 07:15:36;;;;;;;31.58;28.25;;;9.00;99.90;;;;;;5090094;29;20028;-73
2023/12/29 07:18:07;;;;;;;57.22;28.35;;;9.10;99.90;;;;;;5093592;29;20059;-74
2023/12/29 07:20:38;;;;;;;31.58;28.25;;;9.30;99.90;;;;;;5094504;29;20036;-73
2023/12/29 07:23:09;;;;;;;31.02;27.08;;;9.40;99.90;;;;;;5090843;29;20055;-73
2023/12/29 07:25:39;;;;;;;32.13;28.63;;;9.40;99.90;;;;;;5093753;29;20031;-73
2023/12/29 07:28:10;;;;;;;31.10;26.58;;;9.50;99.90;;;;;;5093424;29;20043;-72
2023/12/29 07:30:41;;;;;;;34.13;30.35;;;9.80;99.90;;;;;;5093104;29;20143;-72
2023/12/29 07:33:12;;;;;;;29.40;26.33;;;9.80;99.90;;;;;;5091536;29;20793;-73
2023/12/29 07:35:43;;;;;;;22.35;20.00;;;9.70;99.90;;;;;;5089410;29;20123;-72
2023/12/29 07:38:14;;;;;;;23.85;21.35;;;9.70;99.90;;;;;;5093129;29;20027;-73
2023/12/29 07:40:45;;;;;;;23.63;21.23;;;9.70;99.90;;;;;;5094296;29;20807;-72
2023/12/29 07:43:16;;;;;;;23.90;21.42;;;9.80;99.90;;;;;;5093323;29;20044;-73
2023/12/29 07:45:46;;;;;;;23.15;19.90;;;10.10;99.90;;;;;;5091878;29;21193;-72
2023/12/29 07:48:17;;;;;;;23.20;20.60;;;10.40;99.90;;;;;;5093226;29;20077;-72
2023/12/29 07:50:48;;;;;;;21.08;18.83;;;10.60;99.90;;;;;;5088480;29;20040;-73
2023/12/29 07:53:19;;;;;;;21.90;19.70;;;10.70;99.90;;;;;;5089347;29;20044;-73
2023/12/29 07:55:52;;;;;;;24.33;20.08;;;10.80;99.90;;;;;;5090479;29;20032;-72
2023/12/29 07:58:23;;;;;;;23.52;20.70;;;11.10;99.90;;;;;;5086089;29;20040;-73
2023/12/29 08:00:54;;;;;;;23.95;20.40;;;11.30;99.90;;;;;;5090767;29;20925;-73
2023/12/29 08:03:25;;;;;;;25.00;22.27;;;11.40;99.90;;;;;;5090503;29;20477;-73
2023/12/29 08:05:56;;;;;;;22.95;20.52;;;11.40;99.90;;;;;;5092686;29;20039;-72
2023/12/29 08:08:27;;;;;;;26.05;22.83;;;11.50;99.90;;;;;;5095652;29;20536;-72
2023/12/29 08:10:57;;;;;;;26.60;23.73;;;11.50;99.90;;;;;;5096799;29;20034;-73
2023/12/29 08:13:29;;;;;;;36.08;27.15;;;11.80;99.90;;;;;;5091337;29;20043;-73
2023/12/29 08:16:00;;;;;;;29.40;26.00;;;11.80;99.90;;;;;;5086928;29;20031;-73
2023/12/29 08:18:31;;;;;;;26.27;23.48;;;12.00;99.90;;;;;;5093849;29;20055;-73
2023/12/29 08:21:02;;;;;;;27.17;23.35;;;12.20;99.90;;;;;;5090794;29;20114;-73
2023/12/29 08:23:33;;;;;;;27.65;22.33;;;12.20;99.90;;;;;;5095034;29;20039;-73
2023/12/29 08:26:04;;;;;;;24.27;21.67;;;12.20;99.90;;;;;;5089897;29;20385;-74
2023/12/29 08:28:35;;;;;;;25.25;22.63;;;12.30;99.90;;;;;;5090403;29;20789;-72
2023/12/29 08:31:07;;;;;;;26.45;22.98;;;12.30;99.90;;;;;;5087350;29;20036;-73
2023/12/29 08:33:38;;;;;;;26.25;23.50;;;12.30;99.90;;;;;;5086494;29;20032;-72
2023/12/29 08:36:11;;;;;;;25.17;22.65;;;12.60;99.90;;;;;;5089495;29;20035;-73
2023/12/29 08:38:42;;;;;;;24.83;21.98;;;12.70;99.90;;;;;;5089848;29;20032;-73
2023/12/29 08:41:18;;;;;;;24.88;22.33;;;12.80;99.90;;;;;;5085892;29;20036;-73
2023/12/29 08:43:48;;;;;;;25.92;23.23;;;13.00;99.90;;;;;;5085380;29;20099;-73
2023/12/29 08:46:19;;;;;;;27.52;24.42;;;13.20;99.90;;;;;;5092093;29;20874;-73
2023/12/29 08:48:51;;;;;;;30.90;26.45;;;13.50;99.90;;;;;;5088457;29;20115;-72
2023/12/29 08:51:23;;;;;;;32.30;29.02;;;13.50;99.90;;;;;;5086601;29;20127;-73
2023/12/29 08:53:53;;;;;;;41.00;37.17;;;13.80;99.90;;;;;;5085987;29;20027;-73
2023/12/29 08:56:25;;;;;;;51.15;46.88;;;14.10;99.90;;;;;;5086313;29;20032;-72
2023/12/29 08:58:57;;;;;;;43.70;39.53;;;14.30;99.90;;;;;;5085116;29;20060;-73
2023/12/29 09:01:28;;;;;;;29.35;26.25;;;14.30;99.90;;;;;;5087440;29;20451;-73
2023/12/29 09:04:00;;;;;;;25.92;20.73;;;14.40;99.90;;;;;;5088050;29;20043;-73
2023/12/29 09:06:31;;;;;;;26.15;23.35;;;14.30;99.90;;;;;;5089315;29;20020;-72
2023/12/29 09:09:02;;;;;;;23.45;20.45;;;14.60;99.90;;;;;;5087085;29;20099;-73
2023/12/29 09:11:32;;;;;;;22.77;20.38;;;14.50;99.90;;;;;;5084592;29;20036;-73
2023/12/29 09:14:03;;;;;;;22.67;18.38;;;14.70;99.90;;;;;;5089616;29;20439;-73
2023/12/29 09:16:36;;;;;;;22.90;20.45;;;14.80;99.90;;;;;;5087404;29;20119;-73
2023/12/29 09:19:07;;;;;;;21.27;17.73;;;14.90;99.90;;;;;;5094914;29;20530;-72
2023/12/29 09:21:37;;;;;;;24.77;21.50;;;15.10;99.90;;;;;;5091475;29;20036;-73
2023/12/29 09:24:08;;;;;;;24.60;21.10;;;15.10;99.90;;;;;;5091779;29;20066;-73
2023/12/29 09:26:39;;;;;;;30.65;27.52;;;15.30;99.90;;;;;;5090121;29;20028;-73
2023/12/29 09:29:10;;;;;;;57.58;33.00;;;15.20;99.90;;;;;;5089801;29;20043;-73
2023/12/29 09:31:42;;;;;;;42.40;38.78;;;15.10;99.90;;;;;;5085372;29;20485;-73
2023/12/29 09:34:13;;;;;;;39.42;35.95;;;15.10;99.90;;;;;;5087076;29;20082;-72
2023/12/29 09:36:44;;;;;;;39.63;35.90;;;15.30;99.90;;;;;;5086825;29;20023;-72
2023/12/29 09:39:16;;;;;;;37.67;34.22;;;15.30;99.90;;;;;;5091312;29;20068;-73
2023/12/29 09:41:51;;;;;;;33.13;30.00;;;15.50;99.90;;;;;;5088836;29;20071;-72
2023/12/29 09:44:21;;;;;;;31.30;27.40;;;15.70;99.90;;;;;;5090059;29;20531;-73
2023/12/29 09:46:54;;;;;;;35.03;26.75;;;15.50;99.90;;;;;;5096356;29;20040;-73
2023/12/29 09:49:27;;;;;;;27.10;24.30;;;15.50;99.90;;;;;;5094527;29;20020;-72
2023/12/29 09:51:59;;;;;;;28.55;25.45;;;15.70;99.90;;;;;;5092606;29;20051;-72
2023/12/29 09:54:32;;;;;;;30.20;27.02;;;15.70;99.90;;;;;;5092925;29;20024;-73
2023/12/29 09:57:05;;;;;;;26.75;23.85;;;15.90;99.90;;;;;;5092445;29;20032;-73
2023/12/29 09:59:38;;;;;;;29.40;26.35;;;16.00;99.90;;;;;;5092671;29;20461;-73
2023/12/29 10:02:18;;;;;;;25.52;21.80;;;16.40;99.90;;;;;;5089071;29;20080;-72
2023/12/29 10:04:49;;;;;;;21.60;19.02;;;16.30;99.90;;;;;;5097744;29;20032;-73
2023/12/29 10:07:28;;;;;;;22.98;17.33;;;16.60;99.90;;;;;;5093870;29;20036;-73
2023/12/29 10:10:00;;;;;;;25.63;17.10;;;16.50;99.90;;;;;;5093876;29;20024;-73
2023/12/29 10:12:32;;;;;;;19.67;16.45;;;16.20;99.90;;;;;;5483365;23;20064;-73
2023/12/29 10:15:03;;;;;;;22.73;17.95;;;16.30;99.90;;;;;;5086148;29;20737;-73
2023/12/29 10:17:55;;;;;;;23.17;17.83;;;16.40;99.90;;;;;;5089571;29;20028;-73
2023/12/29 10:21:00;;;;;;;23.95;19.33;;;16.70;99.90;;;;;;5087859;29;20788;-73
2023/12/29 10:23:45;;;;;;;23.90;18.58;;;16.90;99.90;;;;;;5087530;29;20124;-74
2023/12/29 10:26:17;;;;;;;23.88;19.50;;;17.10;99.90;;;;;;5087351;29;20044;-73
2023/12/29 10:28:53;;;;;;;26.23;23.10;;;17.50;99.90;;;;;;5092773;29;21353;-73
2023/12/29 10:31:24;;;;;;;32.40;29.00;;;17.30;99.90;;;;;;5090386;29;20074;-72
2023/12/29 10:34:19;;;;;;;32.40;29.05;;;17.40;99.90;;;;;;5088353;29;20039;-73
2023/12/29 10:36:51;;;;;;;27.83;24.77;;;17.40;99.90;;;;;;5088549;29;20032;-73
2023/12/29 10:39:22;;;;;;;25.73;21.77;;;17.40;99.90;;;;;;5088936;29;20083;-73
2023/12/29 10:42:06;;;;;;;24.77;22.10;;;17.50;99.90;;;;;;5088763;29;20032;-73
2023/12/29 10:44:40;;;;;;;23.20;20.75;;;17.40;99.90;;;;;;5064978;29;20032;-73
2023/12/29 10:47:12;;;;;;;23.00;20.67;;;17.70;99.90;;;;;;5069992;29;20025;-73
2023/12/29 10:49:43;;;;;;;22.52;18.50;;;17.70;99.90;;;;;;5070123;29;20028;-73
2023/12/29 10:52:23;;;;;;;20.70;18.20;;;17.60;99.90;;;;;;5069146;29;20045;-73
2023/12/29 10:55:05;;;;;;;21.60;17.55;;;17.70;99.90;;;;;;5070323;29;20020;-73
2023/12/29 10:57:37;;;;;;;20.73;16.10;;;18.10;99.90;;;;;;5067692;29;20339;-73
2023/12/29 11:00:12;;;;;;;17.70;14.05;;;17.70;99.90;;;;;;5066478;29;20079;-73
2023/12/29 11:02:54;;;;;;;17.10;12.93;;;17.80;99.90;;;;;;5070163;29;20028;-73
2023/12/29 11:05:40;;;;;;;17.98;13.05;;;17.90;99.90;;;;;;5070424;29;20088;-73
2023/12/29 11:08:21;;;;;;;13.80;11.30;;;17.80;99.90;;;;;;5070152;29;20028;-73
2023/12/29 11:10:55;;;;;;;13.75;10.93;;;17.60;99.90;;;;;;5071978;29;20092;-72
2023/12/29 11:13:35;;;;;;;13.98;10.63;;;18.00;99.90;;;;;;5454410;23;20889;-74
2023/12/29 11:16:09;;;;;;;;;;;17.90;99.90;;;;;;5054942;29;20041;-73
2023/12/29 11:18:44;;;;;;;17.88;10.95;;;18.10;99.90;;;;;;5063180;29;20340;-73
2023/12/29 11:21:19;;;;;;;13.13;10.48;;;18.00;99.90;;;;;;5063951;29;20378;-73
2023/12/29 11:23:52;;;;;;;17.13;13.02;;;18.40;99.90;;;;;;5063152;29;20024;-73
2023/12/29 11:26:27;;;;;;;12.63;10.57;;;18.50;99.90;;;;;;5064065;29;20501;-73
2023/12/29 11:29:05;;;;;;;13.57;10.23;;;18.40;99.90;;;;;;5063431;29;20931;-74
2023/12/29 11:31:37;;;;;;;14.57;10.25;;;18.30;99.90;;;;;;5060786;29;20088;-73
2023/12/29 11:34:21;;;;;;;10.43;9.32;;;18.30;99.90;;;;;;5061724;29;20637;-74
2023/12/29 11:37:07;;;;;;;15.50;11.00;;;18.40;99.90;;;;;;5063594;29;20140;-73
2023/12/29 11:39:54;;;;;;;15.20;11.77;;;18.40;99.90;;;;;;5061329;29;20029;-73
2023/12/29 11:42:37;;;;;;;16.55;11.20;;;18.30;99.90;;;;;;5062810;29;20387;-74
2023/12/29 11:45:35;;;;;;;15.85;11.98;;;18.60;99.90;;;;;;5063282;29;20135;-73
2023/12/29 11:48:08;;;;;;;15.93;12.00;;;18.80;99.90;;;;;;5061558;29;20036;-73
2023/12/29 11:50:44;;;;;;;15.88;11.85;;;18.30;99.90;;;;;;5062825;29;20036;-73
2023/12/29 11:53:35;;;;;;;15.23;12.52;;;18.40;99.90;;;;;;5063115;29;20139;-73
2023/12/29 11:56:17;;;;;;;14.88;13.23;;;18.50;99.90;;;;;;5063032;29;20111;-74
2023/12/29 11:58:49;;;;;;;17.98;13.27;;;18.40;99.90;;;;;;5062687;29;20048;-73
2023/12/29 12:01:42;;;;;;;15.18;11.73;;;18.20;99.90;;;;;;5062545;29;20824;-73
2023/12/29 12:04:44;;;;;;;17.25;14.02;;;18.70;99.90;;;;;;5063083;29;20048;-73
2023/12/29 12:07:31;;;;;;;20.15;14.57;;;18.50;99.90;;;;;;5061390;29;20079;-73
2023/12/29 12:10:33;;;;;;;17.50;14.77;;;18.50;99.90;;;;;;5062194;29;20968;-73
2023/12/29 12:13:06;;;;;;;19.98;15.48;;;18.60;99.90;;;;;;5045531;29;20078;-72
2023/12/29 12:15:41;;;;;;;18.05;15.07;;;18.10;99.90;;;;;;5059620;29;20397;-73
2023/12/29 12:18:17;;;;;;;18.90;14.20;;;18.50;99.90;;;;;;5061137;29;20035;-73
2023/12/29 12:20:52;;;;;;;21.45;15.43;;;19.00;99.90;;;;;;5062456;29;20373;-73
2023/12/29 12:23:34;;;;;;;15.52;13.98;;;18.80;99.90;;;;;;5062300;29;20047;-73
2023/12/29 12:26:11;;;;;;;20.73;14.65;;;19.10;99.90;;;;;;5061946;29;20060;-74
2023/12/29 12:28:45;;;;;;;19.30;14.50;;;20.30;99.90;;;;;;5059958;29;20374;-75
2023/12/29 12:31:28;;;;;;;17.88;13.25;;;21.00;99.90;;;;;;5062247;29;20040;-75
2023/12/29 12:34:05;;;;;;;23.17;13.55;;;21.50;99.90;;;;;;5061999;29;20590;-75
2023/12/29 12:36:51;;;;;;;18.52;13.88;;;22.70;99.90;;;;;;5061416;29;20076;-75
2023/12/29 12:39:25;;;;;;;27.35;14.68;;;26.40;99.90;;;;;;5061167;29;20044;-74
2023/12/29 12:42:00;;;;;;;15.85;13.10;;;31.20;99.90;;;;;;5061350;29;20033;-74
2023/12/29 12:44:34;;;;;;;14.93;12.30;;;33.80;84.00;;;;;;5061436;29;20017;-74
2023/12/29 12:47:13;;;;;;;16.92;15.20;;;30.80;81.80;;;;;;5061205;29;20033;-74
2023/12/29 12:49:46;;;;;;;15.73;11.18;;;32.80;73.80;;;;;;5057047;29;20028;-74
2023/12/29 12:52:19;;;;;;;12.60;10.70;;;34.90;66.20;;;;;;5058810;29;20584;-74
2023/12/29 12:54:56;;;;;;;18.48;13.02;;;34.40;61.10;;;;;;5061325;29;20020;-74
2023/12/29 12:57:31;;;;;;;16.60;13.52;;;31.50;63.80;;;;;;5061066;29;20508;-73
2023/12/29 13:00:08;;;;;;;15.15;12.68;;;31.90;64.20;;;;;;5062358;29;20047;-74
2023/12/29 13:02:45;;;;;;;15.55;11.27;;;32.70;61.70;;;;;;5059964;29;20119;-74